This is the latest recevied weather packets stored in our database for station/object KJ5MTR. If no packets are shown the sender has not sent any weather packets the latest 10 day(s).
| Time | Temp. | Humidity | Pressure | Rain* | Wind** | Luminosity | Snow |
|---|---|---|---|---|---|---|---|
| 1777760117 | 24.44° C | 40% | 1019.6 hPa | 0 mm | - | - | - |
| 1777754116 | 24.44° C | 42% | 1020.7 hPa | 0 mm | - | - | - |
| 1777752317 | 24.44° C | 44% | 1020.9 hPa | 0 mm | - | - | - |
| 1777751716 | 24.44° C | 43% | 1020.9 hPa | 0 mm | - | - | - |
| 1777743915 | 22.22° C | 54% | 1022.5 hPa | 0 mm | - | - | - |
| 1777743335 | 22.22° C | 56% | 1022.7 hPa | 0 mm | - | - | - |
| 1777736737 | 18.89° C | 59% | 1022.8 hPa | 0 mm | - | - | - |
| 1777735517 | 18.89° C | 61% | 1022.9 hPa | 0 mm | - | - | - |
| 1777733117 | 16.67° C | 70% | 1022.5 hPa | 0 mm | - | - | - |
| 1777730117 | 14.44° C | 82% | 1022 hPa | 0 mm | - | - | - |
| 1777729517 | 13.89° C | 86% | 1021.9 hPa | 0 mm | - | - | - |
| 1777726517 | 9.44° C | 95% | 1021.1 hPa | 0 mm | - | - | - |
| 1777722917 | 8.33° C | 95% | 1020.1 hPa | 0 mm | - | - | - |
| 1777719957 | 8.89° C | 95% | 1019.6 hPa | 0 mm | - | - | - |
| 1777715717 | 10° C | 94% | 1018.6 hPa | 0 mm | - | - | - |
| 1777713917 | 10° C | 94% | 1018.2 hPa | 0 mm | - | - | - |
| 1777713317 | 10° C | 94% | 1018.1 hPa | 0 mm | - | - | - |
| 1777712717 | 10° C | 93% | 1017.9 hPa | 0 mm | - | - | - |
| 1777709116 | 10° C | 94% | 1017.9 hPa | 0.25 mm | - | - | - |
| 1777706117 | 10° C | 95% | 1018 hPa | 0 mm | - | - | - |
| 1777703716 | 10.56° C | 93% | 1017.9 hPa | 0 mm | - | - | - |
| 1777699516 | 11.11° C | 92% | 1017.9 hPa | 0 mm | - | - | - |
| 1777697716 | 11.67° C | 92% | 1017.8 hPa | 0 mm | - | - | - |
| 1777692916 | 12.22° C | 91% | 1017.8 hPa | 0 mm | - | - | - |
| 1777691716 | 12.22° C | 91% | 1017.5 hPa | 0 mm | - | - | - |
* Rain latest hour (hover to see other rain measurements)
** Current wind speed in m/s (hover to see current wind gust speed)